Time;durP1;ratioP1;P1;durP2;ratioP2;P2;SDS_P1;SDS_P2;PMS_P1;PMS_P2;Temp;Humidity;BMP_temperature;BMP_pressure;BME280_temperature;BME280_humidity;BME280_pressure;Samples;Min_cycle;Max_cycle;Signal;HPM_P1;HPM_P2
2024/02/15 00:00:19;;;;;;;25.73;16.95;;;;;;;;;;5037986;28;20199;-75
2024/02/15 00:02:44;;;;;;;26.95;16.95;;;;;;;;;;5023684;28;20186;-76
2024/02/15 00:05:11;;;;;;;23.58;15.45;;;;;;;;;;5030014;28;20226;-75
2024/02/15 00:07:36;;;;;;;28.80;15.43;;;;;;;;;;5042244;28;20609;-75
2024/02/15 00:10:03;;;;;;;26.85;16.08;;;;;;;;;;5014180;28;20290;-75
2024/02/15 00:12:30;;;;;;;25.98;14.73;;;;;;;;;;5034015;28;20185;-75
2024/02/15 00:14:58;;;;;;;29.17;15.85;;;;;;;;;;5031776;28;20186;-76
2024/02/15 00:17:29;;;;;;;26.58;15.40;;;;;;;;;;5027642;28;20238;-76
2024/02/15 00:19:54;;;;;;;26.70;15.95;;;;;;;;;;5026855;28;20220;-75
2024/02/15 00:22:21;;;;;;;33.25;15.77;;;;;;;;;;5017035;28;20198;-75
2024/02/15 00:24:48;;;;;;;32.45;15.90;;;;;;;;;;5029294;28;20268;-75
2024/02/15 00:27:17;;;;;;;29.85;16.00;;;;;;;;;;5041026;28;20504;-76
2024/02/15 00:29:43;;;;;;;28.98;15.30;;;;;;;;;;5025546;28;20326;-75
2024/02/15 00:32:10;;;;;;;30.20;15.95;;;;;;;;;;5028263;28;20647;-75
2024/02/15 00:34:38;;;;;;;28.63;15.52;;;;;;;;;;5035243;28;20554;-75
2024/02/15 00:37:04;;;;;;;30.15;15.18;;;;;;;;;;5030690;28;20194;-76
2024/02/15 00:39:31;;;;;;;29.55;15.27;;;;;;;;;;5027632;28;20284;-76
2024/02/15 00:41:57;;;;;;;26.50;14.52;;;;;;;;;;5039148;28;20265;-75
2024/02/15 00:44:23;;;;;;;24.60;14.15;;;;;;;;;;5034692;28;20235;-77
2024/02/15 00:46:48;;;;;;;26.73;13.88;;;;;;;;;;5012673;28;20269;-76
2024/02/15 00:49:14;;;;;;;25.75;13.82;;;;;;;;;;5034063;28;20554;-76
2024/02/15 00:51:39;;;;;;;25.58;13.02;;;;;;;;;;5031026;28;20244;-76
2024/02/15 00:54:05;;;;;;;27.98;13.55;;;;;;;;;;5031913;28;20321;-76
2024/02/15 00:56:32;;;;;;;21.30;13.60;;;;;;;;;;5045818;28;20193;-77
2024/02/15 00:59:00;;;;;;;16.95;12.18;;;;;;;;;;5018378;28;20662;-76
2024/02/15 01:01:26;;;;;;;22.83;12.70;;;;;;;;;;5022541;28;20190;-76
2024/02/15 01:03:51;;;;;;;23.50;13.60;;;;;;;;;;5047231;28;20333;-76
2024/02/15 01:06:17;;;;;;;25.80;13.85;;;;;;;;;;5035098;28;20660;-77
2024/02/15 01:08:42;;;;;;;27.15;14.43;;;;;;;;;;5016707;28;20201;-76
2024/02/15 01:11:09;;;;;;;26.90;14.43;;;;;;;;;;5037436;28;20661;-76
2024/02/15 01:13:34;;;;;;;22.52;13.55;;;;;;;;;;5031922;28;20178;-76
2024/02/15 01:16:03;;;;;;;29.52;14.48;;;;;;;;;;5019201;28;20192;-76
2024/02/15 01:18:29;;;;;;;29.10;14.15;;;;;;;;;;5035138;28;20250;-76
2024/02/15 01:20:55;;;;;;;27.15;13.77;;;;;;;;;;5041754;28;20289;-76
2024/02/15 01:23:22;;;;;;;25.60;13.90;;;;;;;;;;5033320;28;20718;-76
2024/02/15 01:25:48;;;;;;;30.33;15.70;;;;;;;;;;5032883;28;20241;-76
2024/02/15 01:28:14;;;;;;;27.75;13.88;;;;;;;;;;5035873;28;20705;-76
2024/02/15 01:30:39;;;;;;;24.95;13.75;;;;;;;;;;5038191;28;20645;-76
2024/02/15 01:33:05;;;;;;;25.67;14.57;;;;;;;;;;5032708;28;20201;-76
2024/02/15 01:35:30;;;;;;;25.90;14.40;;;;;;;;;;5032071;28;20186;-76
2024/02/15 01:37:56;;;;;;;28.17;14.00;;;;;;;;;;5034725;28;20192;-75
2024/02/15 01:40:21;;;;;;;29.33;14.57;;;;;;;;;;5036003;28;20266;-76
2024/02/15 01:42:49;;;;;;;28.83;15.40;;;;;;;;;;5012226;28;20261;-75
2024/02/15 01:45:15;;;;;;;27.90;14.07;;;;;;;;;;5024296;28;20220;-75
2024/02/15 01:47:42;;;;;;;31.35;14.40;;;;;;;;;;5013697;28;20198;-75
2024/02/15 01:50:10;;;;;;;25.38;14.45;;;;;;;;;;5025012;28;20291;-75
2024/02/15 01:52:36;;;;;;;32.00;14.75;;;;;;;;;;5029369;28;20248;-75
2024/02/15 01:55:07;;;;;;;31.50;15.63;;;;;;;;;;5040267;28;20186;-75
2024/02/15 01:57:35;;;;;;;30.65;14.82;;;;;;;;;;5034593;28;20186;-76
2024/02/15 02:00:02;;;;;;;29.40;15.68;;;;;;;;;;5030385;28;20209;-76
2024/02/15 02:02:32;;;;;;;30.58;15.35;;;;;;;;;;5032559;28;20524;-75
2024/02/15 02:04:58;;;;;;;31.65;15.93;;;;;;;;;;5020470;28;20240;-76
2024/02/15 02:07:23;;;;;;;30.55;15.60;;;;;;;;;;5005476;28;20215;-76
2024/02/15 02:09:49;;;;;;;31.70;15.63;;;;;;;;;;5012250;28;20681;-76
2024/02/15 02:12:16;;;;;;;28.55;15.13;;;;;;;;;;5041884;28;20683;-76
2024/02/15 02:14:41;;;;;;;26.35;15.35;;;;;;;;;;5034049;28;20178;-76
2024/02/15 02:17:13;;;;;;;29.77;15.70;;;;;;;;;;5037435;28;20211;-76
2024/02/15 02:19:40;;;;;;;34.83;15.77;;;;;;;;;;5011125;28;20206;-76
2024/02/15 02:22:09;;;;;;;26.65;16.35;;;;;;;;;;5047140;28;20194;-76
2024/02/15 02:24:40;;;;;;;26.75;18.08;;;;;;;;;;5028998;28;20680;-76
2024/02/15 02:27:07;;;;;;;33.05;18.52;;;;;;;;;;5029052;28;20689;-76
2024/02/15 02:29:34;;;;;;;32.40;18.17;;;;;;;;;;5028357;28;20276;-76
2024/02/15 02:31:59;;;;;;;35.50;19.00;;;;;;;;;;5034882;28;20595;-76
2024/02/15 02:34:25;;;;;;;33.70;20.20;;;;;;;;;;5031346;28;20244;-76
2024/02/15 02:36:51;;;;;;;38.60;20.70;;;;;;;;;;5039117;28;20656;-76
2024/02/15 02:39:17;;;;;;;40.78;22.38;;;;;;;;;;5034399;28;20240;-76
2024/02/15 02:41:43;;;;;;;33.97;21.50;;;;;;;;;;5029257;28;20330;-76
2024/02/15 02:44:09;;;;;;;37.85;23.23;;;;;;;;;;5030850;28;20285;-77
2024/02/15 02:46:34;;;;;;;37.03;24.20;;;;;;;;;;5022781;28;20189;-76
2024/02/15 02:48:59;;;;;;;39.40;22.88;;;;;;;;;;5021839;28;20194;-76
2024/02/15 02:51:25;;;;;;;46.15;26.38;;;;;;;;;;5042232;28;20205;-77
2024/02/15 02:53:50;;;;;;;50.70;25.85;;;;;;;;;;5037030;28;20243;-76
2024/02/15 02:56:16;;;;;;;49.35;26.27;;;;;;;;;;5018974;28;20194;-76
2024/02/15 02:58:44;;;;;;;49.85;27.80;;;;;;;;;;5027282;28;20314;-76
2024/02/15 03:01:13;;;;;;;48.25;24.92;;;;;;;;;;5040513;28;20185;-77
2024/02/15 03:03:39;;;;;;;47.13;27.65;;;;;;;;;;5035467;28;20201;-76
2024/02/15 03:06:05;;;;;;;45.97;27.55;;;;;;;;;;5004316;28;20236;-76
2024/02/15 03:08:31;;;;;;;43.78;26.58;;;;;;;;;;5037446;28;20185;-77
2024/02/15 03:10:57;;;;;;;43.97;26.20;;;;;;;;;;5028845;28;20194;-78
2024/02/15 03:13:23;;;;;;;43.83;26.33;;;;;;;;;;5034553;28;20181;-77
2024/02/15 03:15:48;;;;;;;48.83;27.80;;;;;;;;;;5047778;28;20248;-76
2024/02/15 03:18:17;;;;;;;47.28;27.15;;;;;;;;;;5029640;28;20226;-75
2024/02/15 03:20:43;;;;;;;45.42;25.15;;;;;;;;;;5039470;28;20197;-76
2024/02/15 03:23:09;;;;;;;47.45;27.40;;;;;;;;;;5035197;28;20182;-76
2024/02/15 03:25:34;;;;;;;47.00;27.90;;;;;;;;;;5039106;28;20193;-75
2024/02/15 03:28:03;;;;;;;48.85;26.85;;;;;;;;;;5024044;28;20429;-75
2024/02/15 03:30:31;;;;;;;50.10;28.67;;;;;;;;;;5035684;28;20190;-75
2024/02/15 03:32:58;;;;;;;48.70;28.30;;;;;;;;;;5027903;28;20198;-76
2024/02/15 03:35:31;;;;;;;45.30;26.70;;;;;;;;;;5035225;28;20637;-76
2024/02/15 03:37:57;;;;;;;41.95;23.55;;;;;;;;;;5029312;28;20183;-77
2024/02/15 03:40:26;;;;;;;48.65;26.08;;;;;;;;;;5037791;28;20671;-76
2024/02/15 03:42:53;;;;;;;44.00;26.00;;;;;;;;;;5023436;28;20182;-76
2024/02/15 03:45:18;;;;;;;46.28;26.48;;;;;;;;;;5012247;28;20233;-76
2024/02/15 03:47:45;;;;;;;45.97;27.40;;;;;;;;;;5023084;28;20605;-76
2024/02/15 03:50:11;;;;;;;42.22;25.60;;;;;;;;;;5038796;28;20212;-75
2024/02/15 03:52:38;;;;;;;46.28;26.38;;;;;;;;;;5039695;28;20535;-75
2024/02/15 03:55:04;;;;;;;43.58;26.98;;;;;;;;;;5026707;28;20680;-75
2024/02/15 03:57:30;;;;;;;44.50;26.40;;;;;;;;;;5038230;28;20603;-76
2024/02/15 03:59:58;;;;;;;47.22;27.23;;;;;;;;;;5036157;28;20182;-75
2024/02/15 04:02:29;;;;;;;49.45;26.17;;;;;;;;;;5027291;28;20174;-75
2024/02/15 04:04:55;;;;;;;40.83;25.85;;;;;;;;;;5028306;28;20214;-75
2024/02/15 04:07:26;;;;;;;46.75;27.40;;;;;;;;;;5025512;28;20198;-76
2024/02/15 04:09:55;;;;;;;41.53;26.00;;;;;;;;;;5006800;28;20190;-75
2024/02/15 04:12:21;;;;;;;43.45;26.33;;;;;;;;;;5039378;28;20307;-75
2024/02/15 04:14:47;;;;;;;46.28;25.25;;;;;;;;;;5030840;28;20186;-75
2024/02/15 04:17:17;;;;;;;43.42;26.95;;;;;;;;;;5032008;28;20190;-75
2024/02/15 04:19:46;;;;;;;45.97;27.10;;;;;;;;;;5020367;28;20609;-76
2024/02/15 04:22:12;;;;;;;43.00;26.23;;;;;;;;;;5025795;28;20197;-75
2024/02/15 04:24:40;;;;;;;47.17;25.98;;;;;;;;;;5022440;28;20226;-76
2024/02/15 04:27:13;;;;;;;46.80;26.67;;;;;;;;;;5024929;28;20194;-76
2024/02/15 04:29:41;;;;;;;41.85;26.15;;;;;;;;;;5041014;28;20756;-76
2024/02/15 04:32:10;;;;;;;45.08;26.02;;;;;;;;;;5027512;28;20250;-76
2024/02/15 04:34:36;;;;;;;41.55;25.70;;;;;;;;;;5032104;28;20182;-76
2024/02/15 04:37:06;;;;;;;44.22;24.77;;;;;;;;;;5028729;28;20661;-76
2024/02/15 04:39:35;;;;;;;38.65;23.83;;;;;;;;;;5025992;28;21562;-75
2024/02/15 04:42:02;;;;;;;38.28;24.08;;;;;;;;;;5039129;28;20338;-76
2024/02/15 04:44:27;;;;;;;45.50;22.77;;;;;;;;;;5026624;28;20491;-76
2024/02/15 04:46:54;;;;;;;35.03;22.63;;;;;;;;;;5037540;28;20323;-77
2024/02/15 04:49:20;;;;;;;35.28;21.52;;;;;;;;;;5029111;28;20202;-76
2024/02/15 04:51:47;;;;;;;42.83;22.42;;;;;;;;;;5019260;28;20194;-77
2024/02/15 04:54:13;;;;;;;38.85;21.42;;;;;;;;;;5024385;28;20222;-76
2024/02/15 04:56:42;;;;;;;42.80;21.77;;;;;;;;;;5026090;28;20189;-75
2024/02/15 04:59:11;;;;;;;36.72;20.98;;;;;;;;;;5031082;28;20205;-76
2024/02/15 05:01:37;;;;;;;44.28;21.98;;;;;;;;;;5016267;28;20199;-76
2024/02/15 05:04:07;;;;;;;31.00;20.23;;;;;;;;;;5032875;28;20645;-76
2024/02/15 05:06:33;;;;;;;42.45;21.42;;;;;;;;;;5034188;28;20781;-76
2024/02/15 05:08:59;;;;;;;39.22;21.25;;;;;;;;;;5028095;28;20293;-76
2024/02/15 05:11:25;;;;;;;43.88;21.30;;;;;;;;;;5017697;28;20186;-76
2024/02/15 05:13:51;;;;;;;38.55;20.73;;;;;;;;;;5026786;28;20185;-76
2024/02/15 05:16:17;;;;;;;36.08;21.17;;;;;;;;;;5026414;28;20278;-76
2024/02/15 05:18:43;;;;;;;38.20;21.35;;;;;;;;;;5021895;28;20249;-76
2024/02/15 05:21:09;;;;;;;41.60;22.55;;;;;;;;;;5015100;28;20179;-77
2024/02/15 05:23:39;;;;;;;41.00;22.95;;;;;;;;;;5029476;28;20300;-76
2024/02/15 05:26:09;;;;;;;47.05;24.02;;;;;;;;;;5025496;28;20657;-75
2024/02/15 05:28:35;;;;;;;44.65;24.05;;;;;;;;;;5017502;28;20286;-76
2024/02/15 05:31:31;;;;;;;46.95;25.60;;;;;;;;;;5027125;28;20659;-76
2024/02/15 05:33:57;;;;;;;44.20;23.83;;;;;;;;;;5015320;28;20302;-77
2024/02/15 05:36:25;;;;;;;48.35;25.60;;;;;;;;;;5051273;28;20188;-77
2024/02/15 05:38:53;;;;;;;53.47;25.90;;;;;;;;;;5026016;28;20191;-77
2024/02/15 05:41:20;;;;;;;57.05;26.60;;;;;;;;;;5014273;28;20252;-76
2024/02/15 05:43:48;;;;;;;49.17;27.15;;;;;;;;;;5022021;28;20267;-76
2024/02/15 05:46:14;;;;;;;42.63;23.08;;;;;;;;;;5033074;28;20189;-77
2024/02/15 05:48:39;;;;;;;44.17;24.10;;;;;;;;;;5042052;28;20343;-77
2024/02/15 05:51:06;;;;;;;44.25;23.25;;;;;;;;;;5031207;28;20198;-76
2024/02/15 05:53:38;;;;;;;40.78;22.40;;;;;;;;;;5032310;28;20741;-77
2024/02/15 05:56:08;;;;;;;37.20;21.48;;;;;;;;;;5027413;28;20204;-76
2024/02/15 05:58:34;;;;;;;37.88;21.80;;;;;;;;;;5033569;28;20588;-76
2024/02/15 06:01:01;;;;;;;42.80;21.10;;;;;;;;;;5044592;28;20220;-76
2024/02/15 06:03:34;;;;;;;37.33;20.23;;;;;;;;;;5033086;28;20226;-76
2024/02/15 06:06:01;;;;;;;34.50;19.70;;;;;;;;;;5030457;28;20193;-76
2024/02/15 06:08:29;;;;;;;37.83;18.42;;;;;;;;;;5040945;28;20192;-76
2024/02/15 06:10:55;;;;;;;33.83;18.27;;;;;;;;;;5037297;28;20295;-76
2024/02/15 06:13:21;;;;;;;37.75;17.73;;;;;;;;;;5045292;28;20609;-77
2024/02/15 06:15:52;;;;;;;28.25;16.48;;;;;;;;;;5030175;28;20264;-77
2024/02/15 06:18:21;;;;;;;30.95;15.95;;;;;;;;;;5032930;28;20260;-77
2024/02/15 06:20:49;;;;;;;30.42;15.40;;;;;;;;;;5028767;28;20589;-76
2024/02/15 06:23:15;;;;;;;27.33;14.55;;;;;;;;;;5021801;28;20244;-77
2024/02/15 06:25:41;;;;;;;29.95;14.48;;;;;;;;;;5011932;28;20181;-76
2024/02/15 06:28:13;;;;;;;33.88;14.18;;;;;;;;;;5037629;28;20194;-76
2024/02/15 06:41:37;;;;;;;27.30;12.90;;;;;;;;;;5030176;28;20241;-75
2024/02/15 06:44:03;;;;;;;27.67;13.07;;;;;;;;;;5027283;28;20244;-77
2024/02/15 06:46:28;;;;;;;26.92;12.18;;;;;;;;;;5037512;28;20192;-76
2024/02/15 06:48:54;;;;;;;27.67;12.40;;;;;;;;;;5011277;28;20285;-76
2024/02/15 06:51:20;;;;;;;27.42;11.88;;;;;;;;;;5022839;28;20272;-76
2024/02/15 06:53:46;;;;;;;23.45;12.00;;;;;;;;;;5029384;28;20185;-76
2024/02/15 06:56:13;;;;;;;25.30;12.23;;;;;;;;;;5043740;28;20679;-76
2024/02/15 06:58:42;;;;;;;19.20;11.00;;;;;;;;;;5041779;28;20182;-76
2024/02/15 07:01:08;;;;;;;20.85;10.63;;;;;;;;;;5032612;28;20658;-76
2024/02/15 07:03:33;;;;;;;23.17;11.02;;;;;;;;;;5027502;28;20190;-77
2024/02/15 07:05:59;;;;;;;22.35;10.73;;;;;;;;;;5034983;28;20190;-75
2024/02/15 07:08:24;;;;;;;18.45;10.40;;;;;;;;;;5043371;28;20323;-76
2024/02/15 07:10:54;;;;;;;21.20;12.05;;;;;;;;;;5028635;28;20193;-76
2024/02/15 07:13:19;;;;;;;30.23;11.32;;;;;;;;;;5025813;28;20550;-76
2024/02/15 07:15:45;;;;;;;19.55;11.18;;;;;;;;;;5043779;28;20208;-76
2024/02/15 07:18:16;;;;;;;30.52;11.55;;;;;;;;;;5032804;28;20697;-76
2024/02/15 07:20:41;;;;;;;21.65;10.90;;;;;;;;;;5016002;28;20562;-75
2024/02/15 07:23:06;;;;;;;19.48;10.82;;;;;;;;;;5027294;28;20236;-75
2024/02/15 07:25:32;;;;;;;25.33;12.27;;;;;;;;;;5024818;28;20698;-76
2024/02/15 07:27:58;;;;;;;20.75;10.52;;;;;;;;;;5038869;28;20568;-76
2024/02/15 07:30:24;;;;;;;20.52;10.75;;;;;;;;;;5030796;28;20190;-75
2024/02/15 07:32:50;;;;;;;17.48;10.95;;;;;;;;;;5024207;28;20202;-76
2024/02/15 07:35:17;;;;;;;22.70;11.40;;;;;;;;;;5027047;28;20304;-76
2024/02/15 07:37:55;;;;;;;18.88;10.80;;;;;;;;;;5024230;28;20198;-75
2024/02/15 07:40:22;;;;;;;20.95;10.80;;;;;;;;;;5023091;28;20281;-77
2024/02/15 07:42:51;;;;;;;18.67;11.10;;;;;;;;;;5031805;28;20189;-77
2024/02/15 07:45:17;;;;;;;18.08;10.93;;;;;;;;;;5036642;28;20217;-76
2024/02/15 07:47:43;;;;;;;22.00;11.18;;;;;;;;;;5026582;28;20205;-76
2024/02/15 07:50:09;;;;;;;24.80;10.82;;;;;;;;;;5031090;28;20194;-77
2024/02/15 07:52:35;;;;;;;22.33;10.63;;;;;;;;;;5030947;28;20228;-78
2024/02/15 07:55:07;;;;;;;23.48;10.27;;;;;;;;;;5026326;28;20190;-77
2024/02/15 07:57:33;;;;;;;20.40;11.05;;;;;;;;;;5038507;28;20248;-78
2024/02/15 07:59:58;;;;;;;25.88;9.98;;;;;;;;;;5026529;28;20209;-77
2024/02/15 08:02:26;;;;;;;18.50;10.63;;;;;;;;;;5029576;28;20266;-78
2024/02/15 08:04:53;;;;;;;17.92;10.23;;;;;;;;;;5029325;28;20201;-77
2024/02/15 08:07:20;;;;;;;18.38;10.00;;;;;;;;;;5041875;28;20190;-78
2024/02/15 08:09:46;;;;;;;21.85;10.15;;;;;;;;;;5030422;28;20178;-78
2024/02/15 08:12:12;;;;;;;18.40;9.30;;;;;;;;;;5010438;28;20281;-77
2024/02/15 08:14:39;;;;;;;16.48;9.38;;;;;;;;;;5027380;28;20631;-78
2024/02/15 08:17:08;;;;;;;19.00;9.77;;;;;;;;;;5026049;28;20198;-77
2024/02/15 08:19:34;;;;;;;16.52;9.90;;;;;;;;;;5025006;28;20288;-77
2024/02/15 08:22:05;;;;;;;16.15;8.80;;;;;;;;;;5037592;28;20204;-76
2024/02/15 08:24:30;;;;;;;14.02;8.35;;;;;;;;;;5035125;28;20222;-79
2024/02/15 08:26:57;;;;;;;15.23;8.35;;;;;;;;;;5027866;28;20275;-77
2024/02/15 08:29:23;;;;;;;19.48;9.00;;;;;;;;;;5035984;28;20370;-77
2024/02/15 08:31:48;;;;;;;16.70;8.95;;;;;;;;;;5011740;28;20182;-76
2024/02/15 08:34:14;;;;;;;14.57;8.05;;;;;;;;;;5031390;28;20205;-76
2024/02/15 08:36:40;;;;;;;12.52;8.38;;;;;;;;;;5027020;28;20665;-75
2024/02/15 08:39:05;;;;;;;14.43;8.15;;;;;;;;;;5026782;28;20186;-75
2024/02/15 08:41:31;;;;;;;12.88;8.40;;;;;;;;;;5010150;28;20183;-76
2024/02/15 08:43:58;;;;;;;19.63;8.40;;;;;;;;;;5043745;28;20581;-75
2024/02/15 08:46:24;;;;;;;16.02;8.43;;;;;;;;;;5026998;28;20182;-75
2024/02/15 08:48:50;;;;;;;14.27;8.10;;;;;;;;;;5033944;28;20751;-76
2024/02/15 08:51:16;;;;;;;13.07;8.45;;;;;;;;;;5024408;28;20186;-77
2024/02/15 08:53:42;;;;;;;14.65;8.32;;;;;;;;;;5023690;28;20175;-76
2024/02/15 08:56:09;;;;;;;16.33;8.18;;;;;;;;;;5023057;28;20276;-76
2024/02/15 08:58:35;;;;;;;19.70;9.68;;;;;;;;;;5013111;28;20558;-77
2024/02/15 09:01:00;;;;;;;18.58;9.32;;;;;;;;;;5010454;28;20200;-76
2024/02/15 09:03:25;;;;;;;12.13;8.23;;;;;;;;;;5032309;28;20336;-77
2024/02/15 09:05:51;;;;;;;16.67;8.73;;;;;;;;;;5033829;28;20205;-78
2024/02/15 09:08:20;;;;;;;13.88;8.38;;;;;;;;;;5034254;28;20265;-78
2024/02/15 09:10:47;;;;;;;14.30;7.72;;;;;;;;;;5036066;28;20193;-78
2024/02/15 09:13:12;;;;;;;13.60;7.85;;;;;;;;;;5034451;28;20190;-78
2024/02/15 09:15:38;;;;;;;13.65;8.07;;;;;;;;;;5018784;28;20602;-76
2024/02/15 09:18:05;;;;;;;14.35;7.25;;;;;;;;;;5033887;28;20572;-78
2024/02/15 09:20:31;;;;;;;11.02;7.55;;;;;;;;;;5035011;28;20595;-79
2024/02/15 09:22:57;;;;;;;13.05;7.25;;;;;;;;;;5038537;28;20210;-78
2024/02/15 09:25:23;;;;;;;15.85;7.85;;;;;;;;;;5050443;28;20245;-78
2024/02/15 09:27:49;;;;;;;13.73;7.45;;;;;;;;;;5022513;28;20190;-77
2024/02/15 09:30:15;;;;;;;11.52;6.97;;;;;;;;;;5024081;28;20234;-78
2024/02/15 09:32:41;;;;;;;11.88;7.10;;;;;;;;;;5023584;28;20214;-78
2024/02/15 09:35:09;;;;;;;13.05;7.88;;;;;;;;;;5014486;28;20189;-77
2024/02/15 09:37:35;;;;;;;11.48;7.43;;;;;;;;;;5039473;28;20670;-78
2024/02/15 09:40:06;;;;;;;9.15;7.28;;;;;;;;;;5015749;28;20678;-76
2024/02/15 09:42:34;;;;;;;14.02;7.32;;;;;;;;;;5034816;28;20235;-77
2024/02/15 09:45:01;;;;;;;10.57;7.22;;;;;;;;;;5040695;28;20209;-79
2024/02/15 09:47:34;;;;;;;12.07;7.53;;;;;;;;;;5032134;28;20221;-76
2024/02/15 09:49:59;;;;;;;12.07;7.18;;;;;;;;;;5045217;28;20182;-76
2024/02/15 09:52:25;;;;;;;9.23;6.90;;;;;;;;;;5045359;28;20194;-76
2024/02/15 09:54:52;;;;;;;11.00;6.50;;;;;;;;;;5035366;28;20197;-78
2024/02/15 09:57:18;;;;;;;10.65;6.75;;;;;;;;;;5033737;28;20626;-77
2024/02/15 09:59:44;;;;;;;10.00;6.50;;;;;;;;;;5017403;28;20193;-76
2024/02/15 10:02:10;;;;;;;7.47;6.70;;;;;;;;;;5047159;28;20190;-76
2024/02/15 10:04:37;;;;;;;11.57;6.88;;;;;;;;;;5048656;28;20218;-77
2024/02/15 10:07:03;;;;;;;10.07;5.97;;;;;;;;;;5035101;28;20197;-76
2024/02/15 10:09:30;;;;;;;8.70;6.20;;;;;;;;;;5051182;28;20560;-77
2024/02/15 10:11:57;;;;;;;10.43;5.47;;;;;;;;;;5034926;28;20743;-79
2024/02/15 10:14:27;;;;;;;8.15;5.47;;;;;;;;;;5039982;28;20548;-77
2024/02/15 10:16:56;;;;;;;6.75;5.47;;;;;;;;;;5036286;28;20640;-76
2024/02/15 10:19:25;;;;;;;9.43;5.40;;;;;;;;;;5033978;28;20320;-76
2024/02/15 10:21:57;;;;;;;8.25;5.20;;;;;;;;;;5030723;28;20190;-78
2024/02/15 10:24:24;;;;;;;7.20;4.80;;;;;;;;;;5011867;28;20199;-77
2024/02/15 10:26:50;;;;;;;5.32;4.38;;;;;;;;;;5015201;28;20234;-76
2024/02/15 10:29:19;;;;;;;5.15;3.80;;;;;;;;;;5012596;28;20205;-76
2024/02/15 10:31:56;;;;;;;5.43;3.95;;;;;;;;;;5028680;28;20686;-78
2024/02/15 10:34:23;;;;;;;6.55;3.78;;;;;;;;;;5030886;28;20661;-76
2024/02/15 10:36:49;;;;;;;5.75;3.80;;;;;;;;;;5034511;28;20261;-76
2024/02/15 10:39:19;;;;;;;4.68;3.58;;;;;;;;;;5031827;28;20481;-77
2024/02/15 10:41:52;;;;;;;6.47;3.95;;;;;;;;;;5030772;28;20190;-77
2024/02/15 10:44:23;;;;;;;5.78;3.72;;;;;;;;;;5027744;28;20210;-76
2024/02/15 10:46:53;;;;;;;6.20;3.53;;;;;;;;;;5035072;28;20277;-80
2024/02/15 10:49:27;;;;;;;5.95;3.80;;;;;;;;;;5013273;28;20182;-79
2024/02/15 10:52:03;;;;;;;6.53;3.92;;;;;;;;;;5028778;28;20644;-76
2024/02/15 10:54:46;;;;;;;5.13;3.58;;;;;;;;;;5026753;28;20539;-78
2024/02/15 10:57:14;;;;;;;8.45;3.92;;;;;;;;;;5028071;28;20247;-78
2024/02/15 10:59:51;;;;;;;5.95;3.30;;;;;;;;;;5025355;28;20602;-78
2024/02/15 11:02:30;;;;;;;4.35;3.13;;;;;;;;;;5030280;28;20263;-77
2024/02/15 11:05:03;;;;;;;5.85;3.53;;;;;;;;;;5024843;28;20300;-77
2024/02/15 11:07:31;;;;;;;6.85;3.42;;;;;;;;;;5027149;28;20265;-78
2024/02/15 11:09:57;;;;;;;6.93;3.47;;;;;;;;;;5040624;28;20186;-77
2024/02/15 11:12:25;;;;;;;7.13;3.10;;;;;;;;;;5032691;28;20194;-77
2024/02/15 11:14:53;;;;;;;7.57;3.63;;;;;;;;;;5021351;28;20174;-77
2024/02/15 11:17:37;;;;;;;11.40;4.00;;;;;;;;;;5015335;28;20186;-77
2024/02/15 11:20:08;;;;;;;6.45;3.75;;;;;;;;;;5035488;28;20210;-77
2024/02/15 11:22:36;;;;;;;7.03;3.60;;;;;;;;;;5027637;28;20216;-77
2024/02/15 11:25:08;;;;;;;8.00;3.55;;;;;;;;;;5021380;28;20277;-77
2024/02/15 11:27:40;;;;;;;11.00;3.58;;;;;;;;;;5030325;28;20748;-78
2024/02/15 11:30:09;;;;;;;9.18;4.00;;;;;;;;;;5027401;28;20186;-78
2024/02/15 11:32:39;;;;;;;10.30;3.65;;;;;;;;;;5010953;28;20205;-77
2024/02/15 11:35:13;;;;;;;8.73;4.10;;;;;;;;;;5020191;28;20187;-77
2024/02/15 11:38:13;;;;;;;6.68;3.85;;;;;;;;;;5031875;28;20181;-78
2024/02/15 11:40:41;;;;;;;7.68;3.55;;;;;;;;;;5040964;28;20198;-79
2024/02/15 11:43:07;;;;;;;6.00;3.30;;;;;;;;;;5024646;28;20666;-78
2024/02/15 11:45:34;;;;;;;13.73;4.15;;;;;;;;;;5029716;28;20228;-78
2024/02/15 11:48:01;;;;;;;8.43;4.18;;;;;;;;;;5025396;28;20189;-77
2024/02/15 11:50:28;;;;;;;7.88;4.00;;;;;;;;;;5025191;28;20211;-77
2024/02/15 11:53:05;;;;;;;7.55;3.25;;;;;;;;;;5046085;28;20182;-79
2024/02/15 11:55:32;;;;;;;11.88;4.15;;;;;;;;;;5010499;28;20230;-78
2024/02/15 11:58:04;;;;;;;7.97;3.90;;;;;;;;;;5030089;28;20181;-78
2024/02/15 12:19:53;;;;;;;12.18;5.38;;;;;;;;;;5018697;28;20253;-78
2024/02/15 12:22:22;;;;;;;11.63;4.03;;;;;;;;;;5046654;28;20189;-77
2024/02/15 12:24:58;;;;;;;7.97;4.15;;;;;;;;;;5039263;28;20897;-78
2024/02/15 12:27:27;;;;;;;11.18;4.65;;;;;;;;;;5031004;28;20242;-78
2024/02/15 12:29:57;;;;;;;9.88;4.40;;;;;;;;;;5049421;28;20173;-77
2024/02/15 12:32:25;;;;;;;7.13;3.72;;;;;;;;;;5034837;28;20575;-77
2024/02/15 12:34:51;;;;;;;11.55;4.32;;;;;;;;;;5048150;28;20628;-78
2024/02/15 12:37:20;;;;;;;8.60;4.00;;;;;;;;;;5018225;28;20190;-80
2024/02/15 12:39:50;;;;;;;7.22;3.92;;;;;;;;;;5044601;28;20238;-77
2024/02/15 12:42:17;;;;;;;7.32;3.65;;;;;;;;;;5028232;28;20184;-78
2024/02/15 12:44:48;;;;;;;10.63;3.88;;;;;;;;;;5022611;28;20600;-78
2024/02/15 12:47:22;;;;;;;10.32;3.88;;;;;;;;;;5049634;28;20192;-78
2024/02/15 12:49:50;;;;;;;9.23;4.10;;;;;;;;;;5040186;28;20193;-79
2024/02/15 12:52:37;;;;;;;8.70;4.20;;;;;;;;;;5044449;28;20324;-78
2024/02/15 12:55:08;;;;;;;11.82;4.85;;;;;;;;;;5034851;28;20311;-78
2024/02/15 12:57:33;;;;;;;9.77;4.30;;;;;;;;;;5027557;28;20185;-78
2024/02/15 13:00:00;;;;;;;8.27;4.03;;;;;;;;;;5034891;28;20205;-77
2024/02/15 13:02:26;;;;;;;8.82;3.83;;;;;;;;;;5038325;28;20272;-79
2024/02/15 13:04:57;;;;;;;5.97;3.85;;;;;;;;;;5047235;28;20300;-79
2024/02/15 13:07:23;;;;;;;9.43;3.70;;;;;;;;;;5033821;28;20209;-78
2024/02/15 13:09:49;;;;;;;12.43;3.67;;;;;;;;;;5044922;28;20224;-78
2024/02/15 13:12:14;;;;;;;8.60;3.13;;;;;;;;;;5046745;28;20190;-77
2024/02/15 13:14:40;;;;;;;10.07;3.58;;;;;;;;;;5032643;28;20194;-77
2024/02/15 13:17:06;;;;;;;9.73;3.17;;;;;;;;;;5035293;28;20201;-77
2024/02/15 13:19:31;;;;;;;8.15;3.13;;;;;;;;;;5043516;28;20282;-77
2024/02/15 13:21:57;;;;;;;6.68;2.85;;;;;;;;;;5030158;28;20548;-77
2024/02/15 13:24:26;;;;;;;7.53;3.10;;;;;;;;;;5027219;28;20219;-77
2024/02/15 13:26:51;;;;;;;7.70;3.58;;;;;;;;;;5028679;28;20520;-77
2024/02/15 13:29:16;;;;;;;7.28;2.95;;;;;;;;;;5017305;28;20281;-78
2024/02/15 13:31:42;;;;;;;9.23;3.15;;;;;;;;;;5034618;28;20281;-78
2024/02/15 13:34:08;;;;;;;9.05;3.22;;;;;;;;;;5039682;28;20190;-77
2024/02/15 13:36:34;;;;;;;9.00;3.42;;;;;;;;;;5036791;28;20181;-78
2024/02/15 13:39:00;;;;;;;5.03;2.80;;;;;;;;;;5050809;28;20276;-78
2024/02/15 13:41:26;;;;;;;6.80;3.53;;;;;;;;;;5040601;28;20182;-78
2024/02/15 13:43:52;;;;;;;5.90;3.05;;;;;;;;;;5024185;28;20209;-77
2024/02/15 13:46:20;;;;;;;6.25;3.08;;;;;;;;;;5019252;28;20524;-77
2024/02/15 13:48:45;;;;;;;7.80;2.90;;;;;;;;;;5032716;28;20178;-77
2024/02/15 13:51:11;;;;;;;10.77;2.97;;;;;;;;;;5032181;28;20196;-76
2024/02/15 13:53:37;;;;;;;8.38;2.83;;;;;;;;;;5031409;28;20198;-77
2024/02/15 13:56:03;;;;;;;6.93;2.85;;;;;;;;;;5034355;28;20639;-76
2024/02/15 13:58:28;;;;;;;8.50;3.20;;;;;;;;;;5026789;28;20182;-77
2024/02/15 14:00:54;;;;;;;9.05;3.05;;;;;;;;;;5025962;28;20186;-76
2024/02/15 14:03:21;;;;;;;7.88;3.33;;;;;;;;;;5042885;28;20606;-76
2024/02/15 14:05:49;;;;;;;6.70;3.33;;;;;;;;;;5030973;28;20206;-76
2024/02/15 14:08:15;;;;;;;7.85;3.38;;;;;;;;;;5024846;28;20194;-76
2024/02/15 14:10:40;;;;;;;8.25;3.15;;;;;;;;;;5031020;28;20190;-77
2024/02/15 14:13:07;;;;;;;8.63;3.40;;;;;;;;;;5030483;28;20680;-76
2024/02/15 14:15:36;;;;;;;8.63;3.20;;;;;;;;;;5016809;28;20197;-76
2024/02/15 14:18:05;;;;;;;7.97;2.72;;;;;;;;;;5042354;28;20241;-76
2024/02/15 14:20:31;;;;;;;7.85;3.33;;;;;;;;;;5040213;28;20530;-76
2024/02/15 14:22:56;;;;;;;7.60;3.20;;;;;;;;;;5037687;28;20392;-76
2024/02/15 14:25:25;;;;;;;7.38;2.97;;;;;;;;;;5026208;28;20256;-76
2024/02/15 14:27:54;;;;;;;6.32;2.63;;;;;;;;;;5009126;28;20270;-76
2024/02/15 14:33:04;;;;;;;9.68;3.20;;;;;;;;;;5042618;28;20201;-76
2024/02/15 14:35:34;;;;;;;6.97;2.72;;;;;;;;;;5032059;28;20545;-74
2024/02/15 14:38:08;;;;;;;5.85;2.65;;;;;;;;;;5030717;28;20194;-75
2024/02/15 14:40:42;;;;;;;10.55;2.88;;;;;;;;;;5040255;28;20200;-76
2024/02/15 14:43:11;;;;;;;7.57;2.72;;;;;;;;;;5041017;28;20193;-75
2024/02/15 14:45:36;;;;;;;8.25;3.25;;;;;;;;;;5035414;28;20716;-75
2024/02/15 14:48:02;;;;;;;6.95;2.80;;;;;;;;;;5030502;28;20186;-76
2024/02/15 14:50:28;;;;;;;4.95;2.40;;;;;;;;;;5031334;28;20618;-75
2024/02/15 14:52:54;;;;;;;9.27;3.65;;;;;;;;;;5042872;28;20180;-75
2024/02/15 14:55:20;;;;;;;12.93;3.10;;;;;;;;;;5042218;28;20269;-75
2024/02/15 14:57:46;;;;;;;9.90;3.53;;;;;;;;;;5041069;28;20276;-75
2024/02/15 15:00:17;;;;;;;5.75;2.88;;;;;;;;;;5032327;28;20194;-75